sensor_id;sensor_type;location;lat;lon;timestamp;temperature;humidity
18948;DHT22;9607;51.600;7.558;2023-03-29T00:00:59;5.70;99.90
18948;DHT22;9607;51.600;7.558;2023-03-29T00:03:26;5.70;99.90
18948;DHT22;9607;51.600;7.558;2023-03-29T00:05:58;5.70;99.90
18948;DHT22;9607;51.600;7.558;2023-03-29T00:08:27;5.60;99.90
18948;DHT22;9607;51.600;7.558;2023-03-29T00:10:57;5.70;99.90
18948;DHT22;9607;51.600;7.558;2023-03-29T00:13:24;5.60;99.90
18948;DHT22;9607;51.600;7.558;2023-03-29T00:15:52;5.60;99.90
18948;DHT22;9607;51.600;7.558;2023-03-29T00:18:19;5.60;99.90
18948;DHT22;9607;51.600;7.558;2023-03-29T00:20:45;5.60;99.90
18948;DHT22;9607;51.600;7.558;2023-03-29T00:23:19;5.50;99.90
18948;DHT22;9607;51.600;7.558;2023-03-29T00:25:47;5.50;99.90
18948;DHT22;9607;51.600;7.558;2023-03-29T00:28:15;5.50;99.90
18948;DHT22;9607;51.600;7.558;2023-03-29T00:30:41;5.50;99.90
18948;DHT22;9607;51.600;7.558;2023-03-29T00:33:08;5.40;99.90
18948;DHT22;9607;51.600;7.558;2023-03-29T00:35:36;5.40;99.90
18948;DHT22;9607;51.600;7.558;2023-03-29T00:38:03;5.40;99.90
18948;DHT22;9607;51.600;7.558;2023-03-29T00:40:30;5.40;99.90
18948;DHT22;9607;51.600;7.558;2023-03-29T00:42:57;5.40;99.90
18948;DHT22;9607;51.600;7.558;2023-03-29T00:45:27;5.40;99.90
18948;DHT22;9607;51.600;7.558;2023-03-29T00:47:56;5.30;99.90
18948;DHT22;9607;51.600;7.558;2023-03-29T00:50:27;5.40;99.90
18948;DHT22;9607;51.600;7.558;2023-03-29T00:53:00;5.30;99.90
18948;DHT22;9607;51.600;7.558;2023-03-29T00:55:30;5.20;99.90
18948;DHT22;9607;51.600;7.558;2023-03-29T00:57:58;5.20;99.90
18948;DHT22;9607;51.600;7.558;2023-03-29T01:00:30;5.10;99.90
18948;DHT22;9607;51.600;7.558;2023-03-29T01:02:58;5.00;99.90
18948;DHT22;9607;51.600;7.558;2023-03-29T01:05:30;4.90;99.90
18948;DHT22;9607;51.600;7.558;2023-03-29T01:08:00;4.90;99.90
18948;DHT22;9607;51.600;7.558;2023-03-29T01:10:33;4.80;99.90
18948;DHT22;9607;51.600;7.558;2023-03-29T01:13:05;4.80;99.90
18948;DHT22;9607;51.600;7.558;2023-03-29T01:15:36;4.80;99.90
18948;DHT22;9607;51.600;7.558;2023-03-29T01:18:03;4.80;99.90
18948;DHT22;9607;51.600;7.558;2023-03-29T01:23:40;4.90;99.90
18948;DHT22;9607;51.600;7.558;2023-03-29T01:26:15;5.00;99.90
18948;DHT22;9607;51.600;7.558;2023-03-29T01:28:50;5.10;99.90
18948;DHT22;9607;51.600;7.558;2023-03-29T01:31:21;5.10;99.90
18948;DHT22;9607;51.600;7.558;2023-03-29T01:33:54;5.20;99.90
18948;DHT22;9607;51.600;7.558;2023-03-29T01:36:28;5.20;99.90
18948;DHT22;9607;51.600;7.558;2023-03-29T01:39:01;5.30;99.90
18948;DHT22;9607;51.600;7.558;2023-03-29T01:41:34;5.30;99.90
18948;DHT22;9607;51.600;7.558;2023-03-29T01:44:09;5.40;99.90
18948;DHT22;9607;51.600;7.558;2023-03-29T01:46:45;5.40;99.90
18948;DHT22;9607;51.600;7.558;2023-03-29T01:49:16;5.50;99.90
18948;DHT22;9607;51.600;7.558;2023-03-29T01:51:49;5.50;99.90
18948;DHT22;9607;51.600;7.558;2023-03-29T01:54:21;5.50;99.90
18948;DHT22;9607;51.600;7.558;2023-03-29T01:56:51;5.40;99.90
18948;DHT22;9607;51.600;7.558;2023-03-29T01:59:23;5.50;99.90
18948;DHT22;9607;51.600;7.558;2023-03-29T02:01:52;5.50;99.90
18948;DHT22;9607;51.600;7.558;2023-03-29T02:04:25;5.50;99.90
18948;DHT22;9607;51.600;7.558;2023-03-29T02:06:54;5.50;99.90
18948;DHT22;9607;51.600;7.558;2023-03-29T02:09:22;5.50;99.90
18948;DHT22;9607;51.600;7.558;2023-03-29T02:11:50;5.50;99.90
18948;DHT22;9607;51.600;7.558;2023-03-29T02:14:17;5.60;99.90
18948;DHT22;9607;51.600;7.558;2023-03-29T02:16:45;5.60;99.90
18948;DHT22;9607;51.600;7.558;2023-03-29T02:19:14;5.70;99.90
18948;DHT22;9607;51.600;7.558;2023-03-29T02:21:45;5.60;99.90
18948;DHT22;9607;51.600;7.558;2023-03-29T02:24:17;5.60;99.90
18948;DHT22;9607;51.600;7.558;2023-03-29T02:26:45;5.60;99.90
18948;DHT22;9607;51.600;7.558;2023-03-29T02:29:12;5.60;99.90
18948;DHT22;9607;51.600;7.558;2023-03-29T02:31:43;5.70;99.90
18948;DHT22;9607;51.600;7.558;2023-03-29T02:34:18;5.70;99.90
18948;DHT22;9607;51.600;7.558;2023-03-29T02:36:48;5.70;99.90
18948;DHT22;9607;51.600;7.558;2023-03-29T02:39:17;5.80;99.90
18948;DHT22;9607;51.600;7.558;2023-03-29T02:41:47;5.90;99.90
18948;DHT22;9607;51.600;7.558;2023-03-29T02:44:18;5.90;99.90
18948;DHT22;9607;51.600;7.558;2023-03-29T02:46:48;5.90;99.90
18948;DHT22;9607;51.600;7.558;2023-03-29T02:49:17;5.90;99.90
18948;DHT22;9607;51.600;7.558;2023-03-29T02:51:45;6.00;99.90
18948;DHT22;9607;51.600;7.558;2023-03-29T02:54:16;6.00;99.90
18948;DHT22;9607;51.600;7.558;2023-03-29T02:56:45;6.00;99.90
18948;DHT22;9607;51.600;7.558;2023-03-29T02:59:15;6.10;99.90
18948;DHT22;9607;51.600;7.558;2023-03-29T03:01:44;6.10;99.90
18948;DHT22;9607;51.600;7.558;2023-03-29T03:04:11;6.10;99.90
18948;DHT22;9607;51.600;7.558;2023-03-29T03:06:39;6.10;99.90
18948;DHT22;9607;51.600;7.558;2023-03-29T03:09:06;6.20;99.90
18948;DHT22;9607;51.600;7.558;2023-03-29T03:11:34;6.20;99.90
18948;DHT22;9607;51.600;7.558;2023-03-29T03:14:01;6.20;99.90
18948;DHT22;9607;51.600;7.558;2023-03-29T03:16:28;6.20;99.90
18948;DHT22;9607;51.600;7.558;2023-03-29T03:18:55;6.30;99.90
18948;DHT22;9607;51.600;7.558;2023-03-29T03:21:22;6.30;99.90
18948;DHT22;9607;51.600;7.558;2023-03-29T03:23:51;6.30;99.90
18948;DHT22;9607;51.600;7.558;2023-03-29T03:26:19;6.30;99.90
18948;DHT22;9607;51.600;7.558;2023-03-29T03:28:46;6.40;99.90
18948;DHT22;9607;51.600;7.558;2023-03-29T03:31:12;6.40;99.90
18948;DHT22;9607;51.600;7.558;2023-03-29T03:33:39;6.40;99.90
18948;DHT22;9607;51.600;7.558;2023-03-29T03:36:07;6.40;99.90
18948;DHT22;9607;51.600;7.558;2023-03-29T03:38:35;6.50;99.90
18948;DHT22;9607;51.600;7.558;2023-03-29T03:41:04;6.50;99.90
18948;DHT22;9607;51.600;7.558;2023-03-29T03:43:32;6.50;99.90
18948;DHT22;9607;51.600;7.558;2023-03-29T03:45:59;6.50;99.90
18948;DHT22;9607;51.600;7.558;2023-03-29T03:48:26;6.50;99.90
18948;DHT22;9607;51.600;7.558;2023-03-29T03:50:55;6.60;99.90
18948;DHT22;9607;51.600;7.558;2023-03-29T03:53:24;6.60;99.90
18948;DHT22;9607;51.600;7.558;2023-03-29T03:55:55;6.60;99.90
18948;DHT22;9607;51.600;7.558;2023-03-29T03:58:23;6.70;99.90
18948;DHT22;9607;51.600;7.558;2023-03-29T04:00:51;6.70;99.90
18948;DHT22;9607;51.600;7.558;2023-03-29T04:03:19;6.70;99.90
18948;DHT22;9607;51.600;7.558;2023-03-29T04:05:47;6.70;99.90
18948;DHT22;9607;51.600;7.558;2023-03-29T04:08:13;6.70;99.90
18948;DHT22;9607;51.600;7.558;2023-03-29T04:10:40;6.70;99.90
18948;DHT22;9607;51.600;7.558;2023-03-29T04:13:08;6.80;99.90
18948;DHT22;9607;51.600;7.558;2023-03-29T04:15:36;6.80;99.90
18948;DHT22;9607;51.600;7.558;2023-03-29T04:18:04;6.80;99.90
18948;DHT22;9607;51.600;7.558;2023-03-29T04:20:31;6.80;99.90
18948;DHT22;9607;51.600;7.558;2023-03-29T04:22:58;6.80;99.90
18948;DHT22;9607;51.600;7.558;2023-03-29T04:25:25;6.90;99.90
18948;DHT22;9607;51.600;7.558;2023-03-29T04:27:52;6.90;99.90
18948;DHT22;9607;51.600;7.558;2023-03-29T04:30:19;7.00;99.90
18948;DHT22;9607;51.600;7.558;2023-03-29T04:32:47;7.00;99.90
18948;DHT22;9607;51.600;7.558;2023-03-29T04:35:14;7.00;99.90
18948;DHT22;9607;51.600;7.558;2023-03-29T04:37:42;7.10;99.90
18948;DHT22;9607;51.600;7.558;2023-03-29T04:40:10;7.10;99.90
18948;DHT22;9607;51.600;7.558;2023-03-29T04:42:38;7.10;99.90
18948;DHT22;9607;51.600;7.558;2023-03-29T04:45:07;7.10;99.90
18948;DHT22;9607;51.600;7.558;2023-03-29T04:47:34;7.10;99.90
18948;DHT22;9607;51.600;7.558;2023-03-29T04:50:06;7.10;99.90
18948;DHT22;9607;51.600;7.558;2023-03-29T04:52:34;7.10;99.90
18948;DHT22;9607;51.600;7.558;2023-03-29T04:55:01;7.20;99.90
18948;DHT22;9607;51.600;7.558;2023-03-29T04:57:28;7.20;99.90
18948;DHT22;9607;51.600;7.558;2023-03-29T04:59:55;7.20;99.90
18948;DHT22;9607;51.600;7.558;2023-03-29T05:02:22;7.20;99.90
18948;DHT22;9607;51.600;7.558;2023-03-29T05:04:49;7.20;99.90
18948;DHT22;9607;51.600;7.558;2023-03-29T05:07:18;7.20;99.90
18948;DHT22;9607;51.600;7.558;2023-03-29T05:09:44;7.20;99.90
18948;DHT22;9607;51.600;7.558;2023-03-29T05:12:11;7.20;99.90
18948;DHT22;9607;51.600;7.558;2023-03-29T05:14:38;7.20;99.90
18948;DHT22;9607;51.600;7.558;2023-03-29T05:17:05;7.30;99.90
18948;DHT22;9607;51.600;7.558;2023-03-29T05:19:32;7.30;99.90
18948;DHT22;9607;51.600;7.558;2023-03-29T05:22:00;7.30;99.90
18948;DHT22;9607;51.600;7.558;2023-03-29T05:24:28;7.30;99.90
18948;DHT22;9607;51.600;7.558;2023-03-29T05:26:55;7.30;99.90
18948;DHT22;9607;51.600;7.558;2023-03-29T05:29:22;7.40;99.90
18948;DHT22;9607;51.600;7.558;2023-03-29T05:31:49;7.40;99.90
18948;DHT22;9607;51.600;7.558;2023-03-29T05:34:16;7.50;99.90
18948;DHT22;9607;51.600;7.558;2023-03-29T05:36:43;7.60;99.90
18948;DHT22;9607;51.600;7.558;2023-03-29T05:39:10;7.60;99.90
18948;DHT22;9607;51.600;7.558;2023-03-29T05:41:39;7.70;99.90
18948;DHT22;9607;51.600;7.558;2023-03-29T05:44:06;7.70;99.90
18948;DHT22;9607;51.600;7.558;2023-03-29T05:46:33;7.70;99.90
18948;DHT22;9607;51.600;7.558;2023-03-29T05:49:00;7.70;99.90
18948;DHT22;9607;51.600;7.558;2023-03-29T05:51:27;7.80;99.90
18948;DHT22;9607;51.600;7.558;2023-03-29T05:53:54;7.80;99.90
18948;DHT22;9607;51.600;7.558;2023-03-29T05:56:21;7.80;99.90
18948;DHT22;9607;51.600;7.558;2023-03-29T05:58:49;7.90;99.90
18948;DHT22;9607;51.600;7.558;2023-03-29T06:01:15;7.80;99.90
18948;DHT22;9607;51.600;7.558;2023-03-29T06:03:43;7.90;99.90
18948;DHT22;9607;51.600;7.558;2023-03-29T06:06:10;7.90;99.90
18948;DHT22;9607;51.600;7.558;2023-03-29T06:08:39;7.90;99.90
18948;DHT22;9607;51.600;7.558;2023-03-29T06:11:06;7.90;99.90
18948;DHT22;9607;51.600;7.558;2023-03-29T06:13:35;8.00;99.90
18948;DHT22;9607;51.600;7.558;2023-03-29T06:16:05;8.00;99.90
18948;DHT22;9607;51.600;7.558;2023-03-29T06:18:33;8.00;99.90
18948;DHT22;9607;51.600;7.558;2023-03-29T06:21:00;8.00;99.90
18948;DHT22;9607;51.600;7.558;2023-03-29T06:23:28;8.10;99.90
18948;DHT22;9607;51.600;7.558;2023-03-29T06:25:55;8.20;99.90
18948;DHT22;9607;51.600;7.558;2023-03-29T06:28:22;8.20;99.90
18948;DHT22;9607;51.600;7.558;2023-03-29T06:30:49;8.20;99.90
18948;DHT22;9607;51.600;7.558;2023-03-29T06:33:19;8.30;99.90
18948;DHT22;9607;51.600;7.558;2023-03-29T06:35:47;8.40;99.90
18948;DHT22;9607;51.600;7.558;2023-03-29T06:38:15;8.50;99.90
18948;DHT22;9607;51.600;7.558;2023-03-29T06:40:42;8.60;99.90
18948;DHT22;9607;51.600;7.558;2023-03-29T06:43:09;8.70;99.90
18948;DHT22;9607;51.600;7.558;2023-03-29T06:45:37;8.80;99.90
18948;DHT22;9607;51.600;7.558;2023-03-29T06:48:05;8.80;99.90
18948;DHT22;9607;51.600;7.558;2023-03-29T06:50:34;8.90;99.90
18948;DHT22;9607;51.600;7.558;2023-03-29T06:53:02;9.00;99.90
18948;DHT22;9607;51.600;7.558;2023-03-29T06:55:28;9.10;99.90
18948;DHT22;9607;51.600;7.558;2023-03-29T06:57:56;9.20;99.90
18948;DHT22;9607;51.600;7.558;2023-03-29T07:00:23;9.20;99.90
18948;DHT22;9607;51.600;7.558;2023-03-29T07:02:54;9.30;99.90
18948;DHT22;9607;51.600;7.558;2023-03-29T07:05:22;9.40;99.90
18948;DHT22;9607;51.600;7.558;2023-03-29T07:07:51;9.50;99.90
18948;DHT22;9607;51.600;7.558;2023-03-29T07:10:22;9.50;99.90
18948;DHT22;9607;51.600;7.558;2023-03-29T07:12:50;9.60;99.90
18948;DHT22;9607;51.600;7.558;2023-03-29T07:15:18;9.70;99.90
18948;DHT22;9607;51.600;7.558;2023-03-29T07:17:45;9.80;99.90
18948;DHT22;9607;51.600;7.558;2023-03-29T07:20:12;9.90;99.90
18948;DHT22;9607;51.600;7.558;2023-03-29T07:22:40;10.00;99.90
18948;DHT22;9607;51.600;7.558;2023-03-29T07:25:10;10.10;99.90
18948;DHT22;9607;51.600;7.558;2023-03-29T07:27:37;10.10;99.90
18948;DHT22;9607;51.600;7.558;2023-03-29T07:30:07;10.10;99.90
18948;DHT22;9607;51.600;7.558;2023-03-29T07:32:35;10.20;99.90
18948;DHT22;9607;51.600;7.558;2023-03-29T07:35:04;10.20;99.90
18948;DHT22;9607;51.600;7.558;2023-03-29T07:37:31;10.30;99.90
18948;DHT22;9607;51.600;7.558;2023-03-29T07:39:58;10.40;99.90
18948;DHT22;9607;51.600;7.558;2023-03-29T07:42:26;10.50;99.90
18948;DHT22;9607;51.600;7.558;2023-03-29T07:44:53;10.60;99.90
18948;DHT22;9607;51.600;7.558;2023-03-29T07:47:20;10.70;99.90
18948;DHT22;9607;51.600;7.558;2023-03-29T07:49:47;10.80;99.90
18948;DHT22;9607;51.600;7.558;2023-03-29T07:52:14;10.80;99.90
18948;DHT22;9607;51.600;7.558;2023-03-29T07:54:41;10.90;99.90
18948;DHT22;9607;51.600;7.558;2023-03-29T07:57:08;10.90;99.90
18948;DHT22;9607;51.600;7.558;2023-03-29T07:59:36;10.90;99.90
18948;DHT22;9607;51.600;7.558;2023-03-29T08:02:02;10.90;99.90
18948;DHT22;9607;51.600;7.558;2023-03-29T08:04:29;10.90;99.90
18948;DHT22;9607;51.600;7.558;2023-03-29T08:06:56;10.90;99.90
18948;DHT22;9607;51.600;7.558;2023-03-29T08:09:23;11.00;99.90
18948;DHT22;9607;51.600;7.558;2023-03-29T08:11:53;11.10;99.90
18948;DHT22;9607;51.600;7.558;2023-03-29T08:14:20;11.20;99.90
18948;DHT22;9607;51.600;7.558;2023-03-29T08:16:49;11.20;99.90
18948;DHT22;9607;51.600;7.558;2023-03-29T08:19:17;11.20;99.90
18948;DHT22;9607;51.600;7.558;2023-03-29T08:21:44;11.20;99.90
18948;DHT22;9607;51.600;7.558;2023-03-29T08:24:11;11.30;99.90
18948;DHT22;9607;51.600;7.558;2023-03-29T08:26:37;11.30;99.90
18948;DHT22;9607;51.600;7.558;2023-03-29T08:29:04;11.50;99.90
18948;DHT22;9607;51.600;7.558;2023-03-29T08:31:32;11.60;99.90
18948;DHT22;9607;51.600;7.558;2023-03-29T08:34:01;11.80;99.90
18948;DHT22;9607;51.600;7.558;2023-03-29T08:36:27;12.00;99.90
18948;DHT22;9607;51.600;7.558;2023-03-29T08:38:54;12.10;99.90
18948;DHT22;9607;51.600;7.558;2023-03-29T08:41:32;12.30;99.90
18948;DHT22;9607;51.600;7.558;2023-03-29T08:44:16;12.40;99.90
18948;DHT22;9607;51.600;7.558;2023-03-29T08:46:50;12.60;99.90
18948;DHT22;9607;51.600;7.558;2023-03-29T08:49:21;12.80;99.90
18948;DHT22;9607;51.600;7.558;2023-03-29T08:51:50;13.00;99.90
18948;DHT22;9607;51.600;7.558;2023-03-29T08:54:21;13.10;99.90
18948;DHT22;9607;51.600;7.558;2023-03-29T08:56:52;13.30;99.90
18948;DHT22;9607;51.600;7.558;2023-03-29T08:59:23;13.40;99.90
18948;DHT22;9607;51.600;7.558;2023-03-29T09:01:53;13.60;99.90
18948;DHT22;9607;51.600;7.558;2023-03-29T09:04:25;13.70;99.90
18948;DHT22;9607;51.600;7.558;2023-03-29T09:06:53;13.70;99.90
18948;DHT22;9607;51.600;7.558;2023-03-29T09:09:21;13.60;99.90
18948;DHT22;9607;51.600;7.558;2023-03-29T09:11:58;13.40;99.90
18948;DHT22;9607;51.600;7.558;2023-03-29T09:14:38;13.30;99.90
18948;DHT22;9607;51.600;7.558;2023-03-29T09:17:26;13.20;99.90
18948;DHT22;9607;51.600;7.558;2023-03-29T09:20:03;13.10;99.90
18948;DHT22;9607;51.600;7.558;2023-03-29T09:22:38;13.10;99.90
18948;DHT22;9607;51.600;7.558;2023-03-29T09:25:12;13.00;99.90
18948;DHT22;9607;51.600;7.558;2023-03-29T09:27:46;12.90;99.90
18948;DHT22;9607;51.600;7.558;2023-03-29T09:30:16;12.80;99.90
18948;DHT22;9607;51.600;7.558;2023-03-29T09:32:52;12.80;99.90
18948;DHT22;9607;51.600;7.558;2023-03-29T09:35:23;12.70;99.90
18948;DHT22;9607;51.600;7.558;2023-03-29T09:37:52;12.70;99.90
18948;DHT22;9607;51.600;7.558;2023-03-29T09:40:22;12.60;99.90
18948;DHT22;9607;51.600;7.558;2023-03-29T09:42:52;12.50;99.90
18948;DHT22;9607;51.600;7.558;2023-03-29T09:45:20;12.30;99.90
18948;DHT22;9607;51.600;7.558;2023-03-29T09:47:49;12.20;99.90
18948;DHT22;9607;51.600;7.558;2023-03-29T09:50:21;12.10;99.90
18948;DHT22;9607;51.600;7.558;2023-03-29T09:52:49;12.10;99.90
18948;DHT22;9607;51.600;7.558;2023-03-29T09:55:18;12.20;99.90
18948;DHT22;9607;51.600;7.558;2023-03-29T09:57:46;12.20;99.90
18948;DHT22;9607;51.600;7.558;2023-03-29T10:00:15;12.50;99.90
18948;DHT22;9607;51.600;7.558;2023-03-29T10:02:49;12.80;99.90
18948;DHT22;9607;51.600;7.558;2023-03-29T10:05:17;13.20;99.90
18948;DHT22;9607;51.600;7.558;2023-03-29T10:07:48;13.50;99.90
18948;DHT22;9607;51.600;7.558;2023-03-29T10:10:21;13.70;99.90
18948;DHT22;9607;51.600;7.558;2023-03-29T10:12:51;13.80;99.90
18948;DHT22;9607;51.600;7.558;2023-03-29T10:15:18;13.90;99.90
18948;DHT22;9607;51.600;7.558;2023-03-29T10:17:46;14.10;99.90
18948;DHT22;9607;51.600;7.558;2023-03-29T10:20:15;14.20;99.90
18948;DHT22;9607;51.600;7.558;2023-03-29T10:22:47;14.40;99.90
18948;DHT22;9607;51.600;7.558;2023-03-29T10:25:16;14.60;99.90
18948;DHT22;9607;51.600;7.558;2023-03-29T10:27:44;14.60;99.90
18948;DHT22;9607;51.600;7.558;2023-03-29T10:30:18;14.60;99.90
18948;DHT22;9607;51.600;7.558;2023-03-29T10:32:51;14.50;99.90
18948;DHT22;9607;51.600;7.558;2023-03-29T10:35:23;14.40;99.90
18948;DHT22;9607;51.600;7.558;2023-03-29T10:37:54;14.40;99.90
18948;DHT22;9607;51.600;7.558;2023-03-29T10:40:26;14.50;99.90
18948;DHT22;9607;51.600;7.558;2023-03-29T10:42:58;14.60;99.90
18948;DHT22;9607;51.600;7.558;2023-03-29T10:45:27;14.50;99.90
18948;DHT22;9607;51.600;7.558;2023-03-29T10:47:55;14.40;99.90
18948;DHT22;9607;51.600;7.558;2023-03-29T10:50:22;14.50;99.90
18948;DHT22;9607;51.600;7.558;2023-03-29T10:52:49;14.50;99.90
18948;DHT22;9607;51.600;7.558;2023-03-29T10:55:18;14.50;99.90
18948;DHT22;9607;51.600;7.558;2023-03-29T10:57:54;14.40;99.90
18948;DHT22;9607;51.600;7.558;2023-03-29T11:00:31;14.30;99.90
18948;DHT22;9607;51.600;7.558;2023-03-29T11:03:15;14.10;99.90
18948;DHT22;9607;51.600;7.558;2023-03-29T11:05:52;13.80;99.90
18948;DHT22;9607;51.600;7.558;2023-03-29T11:08:28;13.70;99.90
18948;DHT22;9607;51.600;7.558;2023-03-29T11:11:09;13.60;99.90
18948;DHT22;9607;51.600;7.558;2023-03-29T11:13:44;13.80;99.90
18948;DHT22;9607;51.600;7.558;2023-03-29T11:16:23;14.20;99.90
18948;DHT22;9607;51.600;7.558;2023-03-29T11:19:03;14.60;99.90
18948;DHT22;9607;51.600;7.558;2023-03-29T11:21:43;14.70;99.90
18948;DHT22;9607;51.600;7.558;2023-03-29T11:24:26;14.60;99.90
18948;DHT22;9607;51.600;7.558;2023-03-29T11:27:11;14.60;99.90
18948;DHT22;9607;51.600;7.558;2023-03-29T11:29:46;14.60;99.90
18948;DHT22;9607;51.600;7.558;2023-03-29T11:32:22;14.70;99.90
18948;DHT22;9607;51.600;7.558;2023-03-29T11:34:59;14.80;99.90
18948;DHT22;9607;51.600;7.558;2023-03-29T11:37:34;14.80;99.90
18948;DHT22;9607;51.600;7.558;2023-03-29T11:40:14;14.90;99.90
18948;DHT22;9607;51.600;7.558;2023-03-29T11:42:46;14.90;99.90
18948;DHT22;9607;51.600;7.558;2023-03-29T11:45:19;15.10;99.90
18948;DHT22;9607;51.600;7.558;2023-03-29T11:47:49;15.40;99.90
18948;DHT22;9607;51.600;7.558;2023-03-29T11:50:20;15.80;99.90
18948;DHT22;9607;51.600;7.558;2023-03-29T11:52:52;16.20;99.90
18948;DHT22;9607;51.600;7.558;2023-03-29T11:55:23;16.70;99.90
18948;DHT22;9607;51.600;7.558;2023-03-29T11:57:55;17.00;99.90
18948;DHT22;9607;51.600;7.558;2023-03-29T12:00:25;17.20;99.90
18948;DHT22;9607;51.600;7.558;2023-03-29T12:02:58;17.40;99.90
18948;DHT22;9607;51.600;7.558;2023-03-29T12:05:30;17.30;99.80
18948;DHT22;9607;51.600;7.558;2023-03-29T12:07:59;17.30;99.90
18948;DHT22;9607;51.600;7.558;2023-03-29T12:10:31;17.30;99.30
18948;DHT22;9607;51.600;7.558;2023-03-29T12:13:04;17.40;99.90
18948;DHT22;9607;51.600;7.558;2023-03-29T12:15:35;17.40;98.30
18948;DHT22;9607;51.600;7.558;2023-03-29T12:18:09;17.30;99.40
18948;DHT22;9607;51.600;7.558;2023-03-29T12:20:41;17.30;99.40
18948;DHT22;9607;51.600;7.558;2023-03-29T12:23:12;17.30;99.60
18948;DHT22;9607;51.600;7.558;2023-03-29T12:25:47;17.40;99.50
18948;DHT22;9607;51.600;7.558;2023-03-29T12:28:43;17.50;99.90
18948;DHT22;9607;51.600;7.558;2023-03-29T12:31:18;17.50;96.80
18948;DHT22;9607;51.600;7.558;2023-03-29T12:34:09;17.50;97.70
18948;DHT22;9607;51.600;7.558;2023-03-29T12:36:53;17.70;97.20
18948;DHT22;9607;51.600;7.558;2023-03-29T12:39:27;18.10;97.60
18948;DHT22;9607;51.600;7.558;2023-03-29T12:42:04;18.40;95.50
18948;DHT22;9607;51.600;7.558;2023-03-29T12:44:34;18.70;95.70
18948;DHT22;9607;51.600;7.558;2023-03-29T12:47:01;18.90;94.30
18948;DHT22;9607;51.600;7.558;2023-03-29T12:49:31;18.90;93.20
18948;DHT22;9607;51.600;7.558;2023-03-29T12:52:00;18.60;92.00
18948;DHT22;9607;51.600;7.558;2023-03-29T12:54:31;18.30;93.00
18948;DHT22;9607;51.600;7.558;2023-03-29T12:56:59;18.10;94.50
18948;DHT22;9607;51.600;7.558;2023-03-29T12:59:36;18.00;94.60
18948;DHT22;9607;51.600;7.558;2023-03-29T13:02:24;18.00;95.40
18948;DHT22;9607;51.600;7.558;2023-03-29T13:04:53;18.10;95.50
18948;DHT22;9607;51.600;7.558;2023-03-29T13:07:29;18.30;96.20
18948;DHT22;9607;51.600;7.558;2023-03-29T13:09:57;18.60;95.90
18948;DHT22;9607;51.600;7.558;2023-03-29T13:12:26;18.90;95.00
18948;DHT22;9607;51.600;7.558;2023-03-29T13:14:58;18.90;93.10
18948;DHT22;9607;51.600;7.558;2023-03-29T13:17:30;18.80;92.80
18948;DHT22;9607;51.600;7.558;2023-03-29T13:20:19;18.60;93.40
18948;DHT22;9607;51.600;7.558;2023-03-29T13:22:57;18.20;94.40
18948;DHT22;9607;51.600;7.558;2023-03-29T13:25:44;17.80;94.90
18948;DHT22;9607;51.600;7.558;2023-03-29T13:28:17;17.40;96.50
18948;DHT22;9607;51.600;7.558;2023-03-29T13:30:51;17.10;98.00
18948;DHT22;9607;51.600;7.558;2023-03-29T13:33:45;16.80;99.50
18948;DHT22;9607;51.600;7.558;2023-03-29T13:36:27;16.40;99.90
18948;DHT22;9607;51.600;7.558;2023-03-29T13:39:01;16.20;99.90
18948;DHT22;9607;51.600;7.558;2023-03-29T13:41:45;15.90;99.90
18948;DHT22;9607;51.600;7.558;2023-03-29T13:44:24;15.60;99.90
18948;DHT22;9607;51.600;7.558;2023-03-29T13:47:03;15.40;99.90
18948;DHT22;9607;51.600;7.558;2023-03-29T13:49:32;15.40;99.90
18948;DHT22;9607;51.600;7.558;2023-03-29T13:52:05;15.50;99.90
18948;DHT22;9607;51.600;7.558;2023-03-29T13:54:41;15.70;99.90
18948;DHT22;9607;51.600;7.558;2023-03-29T13:57:14;16.10;99.90
18948;DHT22;9607;51.600;7.558;2023-03-29T13:59:48;16.40;99.90
18948;DHT22;9607;51.600;7.558;2023-03-29T14:02:24;16.70;99.90
18948;DHT22;9607;51.600;7.558;2023-03-29T14:04:54;17.00;99.90
18948;DHT22;9607;51.600;7.558;2023-03-29T14:07:26;17.30;99.90
18948;DHT22;9607;51.600;7.558;2023-03-29T14:09:54;17.30;99.90
18948;DHT22;9607;51.600;7.558;2023-03-29T14:12:22;17.30;99.90
18948;DHT22;9607;51.600;7.558;2023-03-29T14:14:50;17.30;99.90
18948;DHT22;9607;51.600;7.558;2023-03-29T14:17:21;17.30;99.90
18948;DHT22;9607;51.600;7.558;2023-03-29T14:19:49;17.30;99.90
18948;DHT22;9607;51.600;7.558;2023-03-29T14:22:18;17.20;99.90
18948;DHT22;9607;51.600;7.558;2023-03-29T14:24:50;17.20;99.90
18948;DHT22;9607;51.600;7.558;2023-03-29T14:27:17;17.20;99.90
18948;DHT22;9607;51.600;7.558;2023-03-29T14:29:45;17.20;99.90
18948;DHT22;9607;51.600;7.558;2023-03-29T14:32:15;17.20;99.90
18948;DHT22;9607;51.600;7.558;2023-03-29T14:34:47;17.40;99.90
18948;DHT22;9607;51.600;7.558;2023-03-29T14:37:17;17.60;99.90
18948;DHT22;9607;51.600;7.558;2023-03-29T14:39:48;17.70;99.90
18948;DHT22;9607;51.600;7.558;2023-03-29T14:42:17;17.90;99.90
18948;DHT22;9607;51.600;7.558;2023-03-29T14:44:47;18.00;99.90
18948;DHT22;9607;51.600;7.558;2023-03-29T14:47:18;18.00;99.90
18948;DHT22;9607;51.600;7.558;2023-03-29T14:49:47;18.10;99.90
18948;DHT22;9607;51.600;7.558;2023-03-29T14:52:14;18.30;99.10
18948;DHT22;9607;51.600;7.558;2023-03-29T14:54:44;18.40;98.90
18948;DHT22;9607;51.600;7.558;2023-03-29T14:57:14;18.60;98.30
18948;DHT22;9607;51.600;7.558;2023-03-29T14:59:47;18.80;97.50
18948;DHT22;9607;51.600;7.558;2023-03-29T15:02:22;19.00;97.40
18948;DHT22;9607;51.600;7.558;2023-03-29T15:04:56;19.00;95.80
18948;DHT22;9607;51.600;7.558;2023-03-29T15:07:24;18.90;95.00
18948;DHT22;9607;51.600;7.558;2023-03-29T15:09:53;18.80;95.30
18948;DHT22;9607;51.600;7.558;2023-03-29T15:12:20;18.70;96.00
18948;DHT22;9607;51.600;7.558;2023-03-29T15:14:48;18.60;96.20
18948;DHT22;9607;51.600;7.558;2023-03-29T15:17:25;18.50;95.10
18948;DHT22;9607;51.600;7.558;2023-03-29T15:19:57;18.40;96.00
18948;DHT22;9607;51.600;7.558;2023-03-29T15:22:30;18.30;96.00
18948;DHT22;9607;51.600;7.558;2023-03-29T15:24:57;18.20;96.50
18948;DHT22;9607;51.600;7.558;2023-03-29T15:27:25;18.20;97.50
18948;DHT22;9607;51.600;7.558;2023-03-29T15:29:58;18.30;98.00
18948;DHT22;9607;51.600;7.558;2023-03-29T15:32:32;18.50;97.10
18948;DHT22;9607;51.600;7.558;2023-03-29T15:35:02;18.80;96.80
18948;DHT22;9607;51.600;7.558;2023-03-29T15:37:29;19.10;96.40
18948;DHT22;9607;51.600;7.558;2023-03-29T15:39:56;19.40;94.70
18948;DHT22;9607;51.600;7.558;2023-03-29T15:42:23;19.40;94.20
18948;DHT22;9607;51.600;7.558;2023-03-29T15:44:52;19.40;93.80
18948;DHT22;9607;51.600;7.558;2023-03-29T15:47:19;19.30;93.30
18948;DHT22;9607;51.600;7.558;2023-03-29T15:49:46;19.20;93.40
18948;DHT22;9607;51.600;7.558;2023-03-29T15:52:14;19.00;94.10
18948;DHT22;9607;51.600;7.558;2023-03-29T15:54:41;18.80;95.00
18948;DHT22;9607;51.600;7.558;2023-03-29T15:57:11;18.60;95.70
18948;DHT22;9607;51.600;7.558;2023-03-29T15:59:38;18.50;95.90
18948;DHT22;9607;51.600;7.558;2023-03-29T16:02:06;18.40;96.50
18948;DHT22;9607;51.600;7.558;2023-03-29T16:04:35;18.30;96.80
18948;DHT22;9607;51.600;7.558;2023-03-29T16:07:06;18.20;96.90
18948;DHT22;9607;51.600;7.558;2023-03-29T16:09:37;18.10;97.50
18948;DHT22;9607;51.600;7.558;2023-03-29T16:12:04;18.00;98.00
18948;DHT22;9607;51.600;7.558;2023-03-29T16:14:31;17.90;98.20